Time;durP1;ratioP1;P1;durP2;ratioP2;P2;SDS_P1;SDS_P2;PMS_P1;PMS_P2;Temp;Humidity;BMP_temperature;BMP_pressure;BME280_temperature;BME280_humidity;BME280_pressure;Samples;Min_cycle;Max_cycle;Signal;HPM_P1;HPM_P2
2023/07/12 00:00:21;;;;;;;5.88;3.95;;;;;;;;;;5051041;28;20235;-65
2023/07/12 00:02:50;;;;;;;11.50;3.78;;;;;;;;;;5047491;28;20555;-65
2023/07/12 00:05:18;;;;;;;6.72;4.32;;;;;;;;;;5042846;28;20211;-65
2023/07/12 00:07:46;;;;;;;11.32;8.27;;;;;;;;;;5038854;28;20581;-64
2023/07/12 00:10:15;;;;;;;42.90;27.65;;;;;;;;;;5038733;28;20237;-64
2023/07/12 00:12:43;;;;;;;8.32;4.60;;;;;;;;;;5038642;28;20294;-65
2023/07/12 00:15:12;;;;;;;10.23;4.40;;;;;;;;;;5038514;28;20222;-63
2023/07/12 00:17:40;;;;;;;24.60;6.93;;;;;;;;;;5038693;28;20206;-63
2023/07/12 00:20:17;;;;;;;20.33;7.53;;;;;;;;;;5038494;28;20280;-63
2023/07/12 00:22:45;;;;;;;12.32;4.97;;;;;;;;;;5038588;28;20214;-63
2023/07/12 00:25:13;;;;;;;9.25;5.03;;;;;;;;;;5038597;28;20218;-63
2023/07/12 00:27:41;;;;;;;14.90;5.07;;;;;;;;;;5038241;28;20207;-63
2023/07/12 00:30:14;;;;;;;15.05;5.63;;;;;;;;;;5038037;28;20258;-62
2023/07/12 00:32:42;;;;;;;9.43;4.97;;;;;;;;;;5038154;28;20235;-64
2023/07/12 00:35:13;;;;;;;11.20;5.18;;;;;;;;;;5038334;28;20211;-65
2023/07/12 00:37:42;;;;;;;10.07;4.53;;;;;;;;;;5037791;28;20222;-65
2023/07/12 00:40:28;;;;;;;10.20;5.15;;;;;;;;;;5043613;28;20218;-64
2023/07/12 00:43:01;;;;;;;12.50;5.55;;;;;;;;;;5040372;28;20681;-63
2023/07/12 00:45:30;;;;;;;6.43;4.53;;;;;;;;;;5038076;28;20215;-63
2023/07/12 00:47:58;;;;;;;9.02;5.15;;;;;;;;;;5038091;28;20211;-63
2023/07/12 00:50:27;;;;;;;10.85;5.50;;;;;;;;;;5038255;28;20765;-63
2023/07/12 00:52:56;;;;;;;9.75;4.82;;;;;;;;;;5037985;28;20213;-63
2023/07/12 00:55:42;;;;;;;13.05;4.82;;;;;;;;;;5038057;28;20209;-63
2023/07/12 00:58:10;;;;;;;8.80;5.63;;;;;;;;;;5037937;28;20568;-63
2023/07/12 01:00:37;;;;;;;7.60;5.00;;;;;;;;;;5050692;28;20231;-63
2023/07/12 01:03:05;;;;;;;13.85;5.35;;;;;;;;;;5048991;28;20198;-63
2023/07/12 01:05:33;;;;;;;14.98;5.97;;;;;;;;;;5040071;28;20233;-64
2023/07/12 01:08:03;;;;;;;12.98;5.68;;;;;;;;;;5037519;28;20214;-63
2023/07/12 01:10:30;;;;;;;11.30;5.32;;;;;;;;;;5037602;28;20318;-63
2023/07/12 01:12:58;;;;;;;15.40;6.53;;;;;;;;;;5037947;28;20226;-65
2023/07/12 01:15:26;;;;;;;13.43;6.35;;;;;;;;;;5037341;28;20309;-65
2023/07/12 01:17:54;;;;;;;11.70;6.40;;;;;;;;;;5037844;28;20685;-65
2023/07/12 01:20:22;;;;;;;12.18;5.30;;;;;;;;;;5036461;28;20277;-64
2023/07/12 01:22:53;;;;;;;10.80;4.97;;;;;;;;;;5037468;28;20221;-63
2023/07/12 01:25:30;;;;;;;12.00;5.80;;;;;;;;;;5037584;28;20203;-64
2023/07/12 01:27:58;;;;;;;9.40;5.47;;;;;;;;;;5037756;28;20209;-64
2023/07/12 01:30:26;;;;;;;10.13;5.43;;;;;;;;;;5037449;28;20242;-64
2023/07/12 01:32:53;;;;;;;11.07;5.57;;;;;;;;;;5037372;28;20249;-64
2023/07/12 01:35:21;;;;;;;12.03;5.37;;;;;;;;;;5037802;28;20635;-64
2023/07/12 01:37:49;;;;;;;12.07;5.83;;;;;;;;;;5037583;28;20217;-64
2023/07/12 01:40:18;;;;;;;7.33;5.20;;;;;;;;;;5043840;28;20220;-64
2023/07/12 01:42:46;;;;;;;11.87;5.57;;;;;;;;;;5039988;28;20580;-64
2023/07/12 01:45:14;;;;;;;10.77;6.00;;;;;;;;;;5037500;28;20213;-64
2023/07/12 01:47:41;;;;;;;10.93;6.70;;;;;;;;;;5039096;28;20214;-64
2023/07/12 01:50:09;;;;;;;12.77;5.70;;;;;;;;;;5041164;28;20235;-64
2023/07/12 01:52:37;;;;;;;14.10;5.93;;;;;;;;;;5041455;28;20206;-63
2023/07/12 01:55:05;;;;;;;14.20;5.00;;;;;;;;;;5051863;28;20204;-62
2023/07/12 01:57:35;;;;;;;10.57;5.20;;;;;;;;;;5064395;28;20238;-63
2023/07/12 02:00:03;;;;;;;11.03;4.90;;;;;;;;;;5052508;28;20620;-62
2023/07/12 02:02:31;;;;;;;15.50;5.23;;;;;;;;;;5048259;28;20204;-62
2023/07/12 02:05:00;;;;;;;12.80;5.50;;;;;;;;;;5048279;28;20208;-62
2023/07/12 02:07:28;;;;;;;12.87;5.03;;;;;;;;;;5047753;28;20202;-61
2023/07/12 02:12:55;;;;;;;12.70;5.63;;;;;;;;;;5054247;28;20202;-62
2023/07/12 02:15:23;;;;;;;10.73;5.10;;;;;;;;;;5056292;28;20200;-62
2023/07/12 02:17:50;;;;;;;7.13;5.27;;;;;;;;;;5057127;28;20207;-62
2023/07/12 02:20:18;;;;;;;7.90;4.30;;;;;;;;;;5041040;28;20235;-63
2023/07/12 02:23:05;;;;;;;10.23;5.03;;;;;;;;;;5060022;28;20194;-63
2023/07/12 02:25:32;;;;;;;10.03;3.97;;;;;;;;;;5066904;28;20645;-63
2023/07/12 02:28:01;;;;;;;10.87;4.87;;;;;;;;;;5066687;28;20199;-63
2023/07/12 02:30:30;;;;;;;7.45;4.00;;;;;;;;;;5070828;28;20230;-63
2023/07/12 02:32:58;;;;;;;7.50;4.13;;;;;;;;;;5066983;28;20327;-63
2023/07/12 02:35:29;;;;;;;6.50;3.23;;;;;;;;;;5066595;28;20214;-62
2023/07/12 02:37:58;;;;;;;8.83;3.97;;;;;;;;;;5063920;28;20205;-62
2023/07/12 02:40:26;;;;;;;6.33;3.63;;;;;;;;;;5069676;28;20224;-63
2023/07/12 02:42:55;;;;;;;8.33;3.27;;;;;;;;;;5065611;28;20227;-63
2023/07/12 02:45:24;;;;;;;8.17;3.63;;;;;;;;;;5067627;28;20217;-62
2023/07/12 02:47:53;;;;;;;6.80;3.70;;;;;;;;;;5064633;28;20559;-63
2023/07/12 02:50:21;;;;;;;8.00;4.03;;;;;;;;;;5070819;28;20231;-62
2023/07/12 02:52:48;;;;;;;9.40;4.00;;;;;;;;;;5069787;28;20208;-62
2023/07/12 02:55:16;;;;;;;8.30;3.77;;;;;;;;;;5067498;28;20210;-63
2023/07/12 02:57:45;;;;;;;6.27;3.73;;;;;;;;;;5061967;28;20646;-63
2023/07/12 03:00:13;;;;;;;11.47;4.53;;;;;;;;;;5057222;28;20230;-63
2023/07/12 03:02:42;;;;;;;9.73;4.33;;;;;;;;;;5047489;28;20286;-63
2023/07/12 03:05:10;;;;;;;5.50;3.30;;;;;;;;;;5047978;28;20612;-63
2023/07/12 03:07:38;;;;;;;6.43;3.80;;;;;;;;;;5040074;28;20212;-63
2023/07/12 03:10:06;;;;;;;7.63;3.57;;;;;;;;;;5039856;28;20231;-63
2023/07/12 03:12:34;;;;;;;7.63;3.80;;;;;;;;;;5040340;28;20215;-63
2023/07/12 03:15:02;;;;;;;9.90;3.90;;;;;;;;;;5039609;28;20221;-63
2023/07/12 03:17:29;;;;;;;10.13;4.40;;;;;;;;;;5039986;28;20274;-63
2023/07/12 03:19:58;;;;;;;10.50;4.70;;;;;;;;;;5039711;28;20235;-63
2023/07/12 03:22:26;;;;;;;6.90;3.90;;;;;;;;;;5039720;28;20215;-63
2023/07/12 03:24:54;;;;;;;6.90;4.20;;;;;;;;;;5039463;28;20241;-63
2023/07/12 03:27:22;;;;;;;7.67;3.83;;;;;;;;;;5039664;28;20211;-63
2023/07/12 03:29:49;;;;;;;12.23;4.17;;;;;;;;;;5039260;28;20601;-63
2023/07/12 03:32:17;;;;;;;5.67;3.33;;;;;;;;;;5039400;28;20324;-63
2023/07/12 03:34:45;;;;;;;5.80;3.50;;;;;;;;;;5039326;28;20214;-63
2023/07/12 03:37:14;;;;;;;9.07;3.60;;;;;;;;;;5039249;28;20564;-63
2023/07/12 03:39:42;;;;;;;7.73;2.83;;;;;;;;;;5040772;28;20206;-63
2023/07/12 03:42:09;;;;;;;9.23;2.83;;;;;;;;;;5047308;28;20215;-63
2023/07/12 03:44:37;;;;;;;7.03;3.77;;;;;;;;;;5039351;28;20220;-63
2023/07/12 03:47:05;;;;;;;5.67;4.17;;;;;;;;;;5039139;28;20211;-63
2023/07/12 03:49:33;;;;;;;8.77;2.83;;;;;;;;;;5039238;28;20218;-63
2023/07/12 03:52:00;;;;;;;9.33;3.67;;;;;;;;;;5039197;28;20213;-62
2023/07/12 03:54:30;;;;;;;8.87;3.00;;;;;;;;;;5039113;28;20221;-63
2023/07/12 03:56:57;;;;;;;8.50;2.90;;;;;;;;;;5038835;28;20580;-63
2023/07/12 03:59:25;;;;;;;7.97;2.90;;;;;;;;;;5045602;28;20220;-62
2023/07/12 04:01:53;;;;;;;6.90;3.07;;;;;;;;;;5045383;28;20220;-63
2023/07/12 04:04:22;;;;;;;8.60;3.10;;;;;;;;;;5050813;28;20211;-62
2023/07/12 04:06:49;;;;;;;11.90;3.63;;;;;;;;;;5038537;28;20218;-64
2023/07/12 04:09:17;;;;;;;8.47;3.53;;;;;;;;;;5039004;28;20218;-62
2023/07/12 04:11:46;;;;;;;7.63;4.17;;;;;;;;;;5038240;28;20652;-62
2023/07/12 04:14:14;;;;;;;6.23;4.43;;;;;;;;;;5048279;28;20293;-62
2023/07/12 04:16:42;;;;;;;14.27;5.37;;;;;;;;;;5055640;28;20225;-63
2023/07/12 04:19:09;;;;;;;9.97;4.70;;;;;;;;;;5038771;28;20210;-62
2023/07/12 04:21:37;;;;;;;12.33;5.70;;;;;;;;;;5038475;28;20625;-64
2023/07/12 04:24:05;;;;;;;12.80;5.97;;;;;;;;;;5042266;28;20202;-63
2023/07/12 04:26:33;;;;;;;12.97;4.80;;;;;;;;;;5041188;28;20207;-63
2023/07/12 04:29:02;;;;;;;9.07;4.47;;;;;;;;;;5038580;28;20246;-63
2023/07/12 04:31:30;;;;;;;9.60;4.57;;;;;;;;;;5037871;28;20239;-63
2023/07/12 04:33:58;;;;;;;8.23;4.90;;;;;;;;;;5038188;28;20249;-63
2023/07/12 04:36:26;;;;;;;8.57;3.87;;;;;;;;;;5038381;28;20221;-63
2023/07/12 04:38:53;;;;;;;7.43;4.33;;;;;;;;;;5038173;28;20288;-63
2023/07/12 04:41:22;;;;;;;7.80;4.10;;;;;;;;;;5047666;28;20221;-63
2023/07/12 04:43:50;;;;;;;8.17;3.63;;;;;;;;;;5038302;28;20761;-63
2023/07/12 04:46:19;;;;;;;11.57;4.00;;;;;;;;;;5037951;28;20214;-63
2023/07/12 04:48:48;;;;;;;8.73;3.53;;;;;;;;;;5038343;28;20209;-63
2023/07/12 04:51:16;;;;;;;6.93;4.00;;;;;;;;;;5044800;28;20254;-63
2023/07/12 04:53:47;;;;;;;4.50;3.13;;;;;;;;;;5057678;28;20708;-63
2023/07/12 04:56:15;;;;;;;10.03;3.20;;;;;;;;;;5058314;28;20692;-63
2023/07/12 04:58:43;;;;;;;9.80;4.70;;;;;;;;;;5057640;28;20275;-63
2023/07/12 05:01:13;;;;;;;9.50;5.03;;;;;;;;;;5048888;28;20234;-63
2023/07/12 05:03:42;;;;;;;8.63;4.40;;;;;;;;;;5053821;28;20202;-63
2023/07/12 05:06:10;;;;;;;9.67;5.40;;;;;;;;;;5057811;28;20211;-63
2023/07/12 05:08:50;;;;;;;8.20;4.73;;;;;;;;;;5057721;28;20678;-63
2023/07/12 05:11:18;;;;;;;10.47;5.33;;;;;;;;;;5057670;28;20272;-63
2023/07/12 05:13:46;;;;;;;9.63;4.40;;;;;;;;;;5057666;28;20294;-68
2023/07/12 05:16:13;;;;;;;5.83;3.30;;;;;;;;;;5057498;28;20289;-66
2023/07/12 05:18:42;;;;;;;8.20;3.30;;;;;;;;;;5057613;28;20245;-65
2023/07/12 05:21:10;;;;;;;7.40;3.63;;;;;;;;;;5057536;28;20237;-65
2023/07/12 05:23:39;;;;;;;9.67;4.00;;;;;;;;;;5056893;28;20301;-65
2023/07/12 05:26:07;;;;;;;9.10;4.17;;;;;;;;;;5057639;28;20217;-65
2023/07/12 05:28:35;;;;;;;6.17;3.53;;;;;;;;;;5057666;28;20647;-66
2023/07/12 05:31:06;;;;;;;7.83;3.57;;;;;;;;;;5056985;28;20604;-65
2023/07/12 05:33:34;;;;;;;8.83;4.00;;;;;;;;;;5057302;28;20324;-65
2023/07/12 05:36:05;;;;;;;8.27;4.20;;;;;;;;;;5057189;28;20732;-66
2023/07/12 05:38:33;;;;;;;9.33;3.80;;;;;;;;;;5057597;28;20216;-66
2023/07/12 05:41:00;;;;;;;12.17;3.57;;;;;;;;;;5058931;28;20254;-66
2023/07/12 05:43:28;;;;;;;7.03;3.83;;;;;;;;;;5057836;28;20212;-66
2023/07/12 05:45:56;;;;;;;7.07;3.67;;;;;;;;;;5041025;28;20207;-66
2023/07/12 05:48:24;;;;;;;10.00;4.20;;;;;;;;;;5037563;28;20220;-66
2023/07/12 05:50:53;;;;;;;7.87;4.50;;;;;;;;;;5037283;28;20240;-66
2023/07/12 05:53:22;;;;;;;19.03;5.63;;;;;;;;;;5037545;28;20214;-66
2023/07/12 05:55:54;;;;;;;10.93;6.23;;;;;;;;;;5043430;28;20218;-66
2023/07/12 05:58:22;;;;;;;9.70;5.30;;;;;;;;;;5064794;28;20213;-66
2023/07/12 06:00:55;;;;;;;13.13;5.40;;;;;;;;;;5064468;28;20296;-66
2023/07/12 06:03:23;;;;;;;12.03;5.33;;;;;;;;;;5065713;28;20202;-66
2023/07/12 06:05:52;;;;;;;10.73;5.10;;;;;;;;;;5059021;28;20228;-66
2023/07/12 06:08:20;;;;;;;18.73;6.73;;;;;;;;;;5067182;28;20565;-66
2023/07/12 06:10:49;;;;;;;12.77;6.50;;;;;;;;;;5055959;28;20242;-66
2023/07/12 06:13:16;;;;;;;16.57;5.87;;;;;;;;;;5037293;28;20681;-66
2023/07/12 06:15:44;;;;;;;13.10;5.80;;;;;;;;;;5054277;28;20210;-66
2023/07/12 06:18:12;;;;;;;9.70;5.70;;;;;;;;;;5066556;28;20211;-66
2023/07/12 06:20:40;;;;;;;17.67;5.30;;;;;;;;;;5065341;28;20308;-66
2023/07/12 06:23:08;;;;;;;9.07;6.57;;;;;;;;;;5058054;28;20223;-66
2023/07/12 06:25:36;;;;;;;7.17;4.70;;;;;;;;;;5063560;28;20291;-66
2023/07/12 06:28:05;;;;;;;10.30;5.47;;;;;;;;;;5063537;28;20215;-66
2023/07/12 06:30:33;;;;;;;13.13;5.63;;;;;;;;;;5068075;28;20214;-66
2023/07/12 06:33:01;;;;;;;10.73;5.23;;;;;;;;;;5064357;28;20233;-66
2023/07/12 06:35:30;;;;;;;12.17;5.50;;;;;;;;;;5069871;28;20276;-66
2023/07/12 06:37:58;;;;;;;11.97;6.27;;;;;;;;;;5061386;28;20203;-65
2023/07/12 06:40:26;;;;;;;11.37;5.53;;;;;;;;;;5055573;28;20262;-65
2023/07/12 06:42:54;;;;;;;9.73;5.40;;;;;;;;;;5052301;28;20269;-66
2023/07/12 06:45:23;;;;;;;12.47;6.17;;;;;;;;;;5059880;28;20208;-64
2023/07/12 06:47:51;;;;;;;10.20;5.30;;;;;;;;;;5060348;28;20292;-64
2023/07/12 06:50:19;;;;;;;9.33;4.83;;;;;;;;;;5060192;28;20282;-66
2023/07/12 06:52:47;;;;;;;11.40;4.80;;;;;;;;;;5059769;28;20319;-66
2023/07/12 06:55:15;;;;;;;10.67;5.30;;;;;;;;;;5060287;28;20289;-66
2023/07/12 06:57:42;;;;;;;8.67;4.63;;;;;;;;;;5060215;28;20227;-66
2023/07/12 07:00:11;;;;;;;12.73;4.60;;;;;;;;;;5059714;28;20236;-66
2023/07/12 07:02:40;;;;;;;7.47;4.73;;;;;;;;;;5047669;28;20215;-65
2023/07/12 07:05:08;;;;;;;14.17;5.60;;;;;;;;;;5045843;28;20247;-66
2023/07/12 07:07:36;;;;;;;7.00;4.70;;;;;;;;;;5039809;28;20210;-65
2023/07/12 07:10:03;;;;;;;13.07;4.77;;;;;;;;;;5043548;28;20240;-64
2023/07/12 07:12:31;;;;;;;14.63;5.23;;;;;;;;;;5039816;28;20324;-64
2023/07/12 07:14:59;;;;;;;8.50;4.17;;;;;;;;;;5039587;28;20209;-64
2023/07/12 07:17:27;;;;;;;7.67;3.83;;;;;;;;;;5039959;28;20204;-64
2023/07/12 07:19:56;;;;;;;7.77;4.23;;;;;;;;;;5047873;28;20314;-65
2023/07/12 07:22:24;;;;;;;8.83;4.53;;;;;;;;;;5066345;28;20293;-65
2023/07/12 07:24:51;;;;;;;6.93;4.30;;;;;;;;;;5069866;28;20210;-65
2023/07/12 07:27:19;;;;;;;7.17;3.43;;;;;;;;;;5054216;28;20641;-65
2023/07/12 07:29:47;;;;;;;7.57;3.77;;;;;;;;;;5039512;28;20231;-65
2023/07/12 07:32:15;;;;;;;11.07;4.57;;;;;;;;;;5039314;28;20249;-65
2023/07/12 07:34:43;;;;;;;6.33;3.60;;;;;;;;;;5039262;28;20212;-66
2023/07/12 07:37:12;;;;;;;7.93;4.30;;;;;;;;;;5039180;28;20214;-66
2023/07/12 07:39:40;;;;;;;7.43;3.97;;;;;;;;;;5040406;28;20218;-66
2023/07/12 07:42:08;;;;;;;10.53;6.40;;;;;;;;;;5047815;28;20720;-64
2023/07/12 07:44:36;;;;;;;6.77;4.13;;;;;;;;;;5039141;28;20206;-64
2023/07/12 07:47:04;;;;;;;3.50;3.20;;;;;;;;;;5038897;28;20219;-64
2023/07/12 07:49:32;;;;;;;5.70;3.30;;;;;;;;;;5039157;28;20207;-66
2023/07/12 07:51:59;;;;;;;8.20;3.73;;;;;;;;;;5062876;28;20569;-64
2023/07/12 07:54:28;;;;;;;6.30;3.33;;;;;;;;;;5060520;28;20665;-64
2023/07/12 07:56:57;;;;;;;3.70;3.30;;;;;;;;;;5050851;28;20609;-64
2023/07/12 07:59:24;;;;;;;6.63;3.10;;;;;;;;;;5038972;28;20230;-64
2023/07/12 08:01:52;;;;;;;7.83;4.03;;;;;;;;;;5044555;28;20763;-64
2023/07/12 08:04:20;;;;;;;8.93;3.67;;;;;;;;;;5051368;28;20208;-64
2023/07/12 08:06:49;;;;;;;5.30;3.50;;;;;;;;;;5051986;28;20200;-64
2023/07/12 08:09:18;;;;;;;4.67;3.20;;;;;;;;;;5072741;28;20293;-64
2023/07/12 08:11:47;;;;;;;14.40;3.73;;;;;;;;;;5056338;28;20229;-64
2023/07/12 08:14:15;;;;;;;5.70;3.43;;;;;;;;;;5038810;28;20230;-64
2023/07/12 08:16:43;;;;;;;4.93;3.47;;;;;;;;;;5038407;28;20214;-64
2023/07/12 08:19:11;;;;;;;3.20;2.90;;;;;;;;;;5038458;28;20212;-64
2023/07/12 08:21:44;;;;;;;5.77;3.30;;;;;;;;;;5038215;28;20237;-64
2023/07/12 08:24:12;;;;;;;7.03;3.53;;;;;;;;;;5038560;28;20208;-64
2023/07/12 08:26:41;;;;;;;6.17;3.63;;;;;;;;;;5038227;28;20249;-61
2023/07/12 08:29:22;;;;;;;7.83;2.77;;;;;;;;;;5038558;28;20231;-62
2023/07/12 08:31:50;;;;;;;7.17;3.10;;;;;;;;;;5037973;28;20227;-62
2023/07/12 08:34:19;;;;;;;8.73;2.30;;;;;;;;;;5038286;28;20208;-61
2023/07/12 08:36:47;;;;;;;2.73;2.40;;;;;;;;;;5045205;28;20583;-62
2023/07/12 08:39:15;;;;;;;4.40;2.40;;;;;;;;;;5058649;28;20212;-62
2023/07/12 08:41:43;;;;;;;7.40;2.80;;;;;;;;;;5050731;28;20286;-62
2023/07/12 08:44:13;;;;;;;3.90;2.80;;;;;;;;;;5038375;28;20210;-62
2023/07/12 08:46:44;;;;;;;6.57;2.20;;;;;;;;;;5038181;28;20213;-63
2023/07/12 08:49:13;;;;;;;7.67;2.60;;;;;;;;;;5038264;28;20207;-62
2023/07/12 08:51:42;;;;;;;5.77;2.40;;;;;;;;;;5038066;28;20248;-62
2023/07/12 08:54:17;;;;;;;5.13;2.27;;;;;;;;;;5037773;28;20324;-62
2023/07/12 08:56:45;;;;;;;3.97;2.13;;;;;;;;;;5037470;28;20238;-66
2023/07/12 08:59:14;;;;;;;4.47;2.40;;;;;;;;;;5038279;28;20214;-66
2023/07/12 09:01:45;;;;;;;7.30;2.50;;;;;;;;;;5037852;28;20226;-67
2023/07/12 09:04:20;;;;;;;8.10;3.47;;;;;;;;;;5038042;28;20210;-67
2023/07/12 09:06:50;;;;;;;4.20;1.87;;;;;;;;;;5037758;28;20360;-67
2023/07/12 09:09:18;;;;;;;7.17;2.50;;;;;;;;;;5038031;28;20276;-67
2023/07/12 09:11:46;;;;;;;3.40;2.13;;;;;;;;;;5037790;28;20228;-67
2023/07/12 09:14:16;;;;;;;10.33;3.17;;;;;;;;;;5037490;28;20258;-66
2023/07/12 09:16:47;;;;;;;5.70;2.83;;;;;;;;;;5037441;28;20221;-67
2023/07/12 09:19:16;;;;;;;5.30;2.90;;;;;;;;;;5037737;28;20223;-67
2023/07/12 09:21:47;;;;;;;3.90;2.60;;;;;;;;;;5037285;28;20620;-67
2023/07/12 09:24:19;;;;;;;4.27;2.70;;;;;;;;;;5037591;28;20208;-67
2023/07/12 09:26:48;;;;;;;6.53;3.83;;;;;;;;;;5037759;28;20222;-67
2023/07/12 09:29:17;;;;;;;5.33;2.67;;;;;;;;;;5037486;28;20607;-66
2023/07/12 09:31:45;;;;;;;7.73;2.70;;;;;;;;;;5044166;28;20229;-66
2023/07/12 09:34:20;;;;;;;5.23;2.80;;;;;;;;;;5057468;28;20601;-66
2023/07/12 09:36:54;;;;;;;7.57;3.20;;;;;;;;;;5057793;28;20676;-66
2023/07/12 09:39:22;;;;;;;2.97;2.50;;;;;;;;;;5057342;28;20205;-67
2023/07/12 09:41:51;;;;;;;4.80;2.47;;;;;;;;;;5047977;28;20242;-67
2023/07/12 09:44:19;;;;;;;6.03;2.57;;;;;;;;;;5037637;28;20209;-67
2023/07/12 09:46:49;;;;;;;10.67;2.83;;;;;;;;;;5037163;28;20224;-67
2023/07/12 09:49:20;;;;;;;8.43;2.80;;;;;;;;;;5037855;28;20210;-66
2023/07/12 09:51:53;;;;;;;3.97;2.47;;;;;;;;;;5037485;28;20234;-66
2023/07/12 09:54:28;;;;;;;5.40;3.07;;;;;;;;;;5037125;28;20321;-66
2023/07/12 09:56:57;;;;;;;6.07;2.70;;;;;;;;;;5037160;28;20295;-66
2023/07/12 09:59:31;;;;;;;3.67;2.50;;;;;;;;;;5043436;28;20685;-66
2023/07/12 10:02:02;;;;;;;3.67;2.23;;;;;;;;;;5043600;28;20214;-67
2023/07/12 10:04:36;;;;;;;4.47;2.57;;;;;;;;;;5048111;28;20203;-67
2023/07/12 10:07:05;;;;;;;5.70;2.90;;;;;;;;;;5037293;28;20246;-67
2023/07/12 10:09:34;;;;;;;4.50;2.90;;;;;;;;;;5040048;28;20221;-66
2023/07/12 10:12:04;;;;;;;4.83;2.57;;;;;;;;;;5041145;28;20224;-66
2023/07/12 10:14:34;;;;;;;5.80;2.70;;;;;;;;;;5040832;28;20313;-64
2023/07/12 10:17:02;;;;;;;7.43;3.00;;;;;;;;;;5040672;28;20235;-64
2023/07/12 10:19:32;;;;;;;4.67;3.10;;;;;;;;;;5040836;28;20566;-64
2023/07/12 10:22:03;;;;;;;5.10;3.10;;;;;;;;;;5040853;28;20299;-65
2023/07/12 10:24:34;;;;;;;6.40;2.47;;;;;;;;;;5040705;28;20205;-65
2023/07/12 10:27:04;;;;;;;4.50;3.07;;;;;;;;;;5041156;28;20572;-65
2023/07/12 10:29:36;;;;;;;3.90;2.83;;;;;;;;;;5040577;28;20577;-65
2023/07/12 10:32:05;;;;;;;4.50;2.97;;;;;;;;;;5040673;28;20300;-66
2023/07/12 10:34:35;;;;;;;8.27;3.60;;;;;;;;;;5040631;28;20756;-65
2023/07/12 10:37:10;;;;;;;3.90;3.47;;;;;;;;;;5040358;28;20235;-65
2023/07/12 10:39:38;;;;;;;15.20;10.87;;;;;;;;;;5041371;28;20212;-66
2023/07/12 10:42:08;;;;;;;5.10;4.40;;;;;;;;;;5049682;28;20208;-65
2023/07/12 10:44:37;;;;;;;5.10;3.90;;;;;;;;;;5040725;28;20267;-65
2023/07/12 10:47:07;;;;;;;5.30;3.45;;;;;;;;;;5040563;28;20281;-65
2023/07/12 10:49:41;;;;;;;7.65;2.60;;;;;;;;;;5040363;28;20242;-65
2023/07/12 10:52:18;;;;;;;9.27;3.13;;;;;;;;;;5047615;28;20260;-65
2023/07/12 10:54:51;;;;;;;5.83;2.80;;;;;;;;;;5067183;28;20576;-65
2023/07/12 10:57:25;;;;;;;4.03;2.83;;;;;;;;;;5062748;28;20201;-64
2023/07/12 10:59:59;;;;;;;7.17;2.60;;;;;;;;;;5067595;28;20267;-63
2023/07/12 11:02:28;;;;;;;4.03;2.58;;;;;;;;;;5066629;28;20292;-63
2023/07/12 11:04:56;;;;;;;6.63;2.73;;;;;;;;;;5067021;28;20277;-63
2023/07/12 11:07:34;;;;;;;5.43;2.65;;;;;;;;;;5066806;28;20209;-63
2023/07/12 11:10:19;;;;;;;5.47;2.40;;;;;;;;;;5065338;28;20308;-63
2023/07/12 11:12:49;;;;;;;5.80;2.70;;;;;;;;;;5063494;28;20285;-63
2023/07/12 11:15:19;;;;;;;8.13;2.53;;;;;;;;;;5066686;28;20222;-63
2023/07/12 11:17:49;;;;;;;5.35;3.17;;;;;;;;;;5068604;28;20213;-63
2023/07/12 11:20:21;;;;;;;2.87;2.57;;;;;;;;;;5064086;28;20263;-63
2023/07/12 11:22:52;;;;;;;2.90;2.60;;;;;;;;;;5066431;28;20197;-63
2023/07/12 11:25:25;;;;;;;8.40;2.80;;;;;;;;;;5039140;28;20208;-63
2023/07/12 11:27:57;;;;;;;5.40;3.10;;;;;;;;;;5039284;28;20271;-63
2023/07/12 11:30:39;;;;;;;5.93;2.40;;;;;;;;;;5038876;28;20252;-63
2023/07/12 11:33:15;;;;;;;4.85;3.05;;;;;;;;;;5039240;28;20240;-63
2023/07/12 11:35:44;;;;;;;6.53;2.90;;;;;;;;;;5038612;28;20239;-63
2023/07/12 11:38:16;;;;;;;3.10;2.75;;;;;;;;;;5039474;28;20582;-63
2023/07/12 11:40:46;;;;;;;7.05;2.92;;;;;;;;;;5048658;28;20222;-63
2023/07/12 11:43:32;;;;;;;4.83;2.80;;;;;;;;;;5039484;28;20223;-62
2023/07/12 11:46:01;;;;;;;4.70;2.60;;;;;;;;;;5039224;28;20614;-63
2023/07/12 11:48:31;;;;;;;4.37;2.57;;;;;;;;;;5039162;28;20650;-63
2023/07/12 11:51:01;;;;;;;3.43;2.60;;;;;;;;;;5038806;28;20226;-63
2023/07/12 11:53:30;;;;;;;18.77;4.00;;;;;;;;;;5039381;28;20212;-63
2023/07/12 11:55:57;;;;;;;5.93;2.92;;;;;;;;;;5043723;28;20312;-63
2023/07/12 11:58:27;;;;;;;7.55;3.40;;;;;;;;;;5067512;28;20203;-63
2023/07/12 12:00:56;;;;;;;3.67;2.90;;;;;;;;;;5061859;28;20252;-63
2023/07/12 12:03:24;;;;;;;7.37;2.80;;;;;;;;;;5069669;28;20671;-63
2023/07/12 12:05:52;;;;;;;4.83;3.00;;;;;;;;;;5067692;28;20206;-63
2023/07/12 12:08:22;;;;;;;7.22;3.47;;;;;;;;;;5066360;28;20204;-63
2023/07/12 12:10:51;;;;;;;4.47;2.83;;;;;;;;;;5067205;28;20281;-63
2023/07/12 12:13:29;;;;;;;5.78;2.95;;;;;;;;;;5067181;28;20277;-63
2023/07/12 12:16:03;;;;;;;5.93;3.70;;;;;;;;;;5066829;28;20226;-62
2023/07/12 12:18:33;;;;;;;5.47;2.80;;;;;;;;;;5066612;28;20199;-62
2023/07/12 12:21:03;;;;;;;9.77;3.63;;;;;;;;;;5063203;28;20218;-62
2023/07/12 12:23:33;;;;;;;5.47;2.77;;;;;;;;;;5063974;28;20207;-62
2023/07/12 12:26:06;;;;;;;4.05;3.13;;;;;;;;;;5065401;28;20723;-62
2023/07/12 12:28:35;;;;;;;5.57;3.05;;;;;;;;;;5061813;28;20207;-62
2023/07/12 12:31:05;;;;;;;4.80;2.92;;;;;;;;;;5066848;28;20244;-62
2023/07/12 12:33:34;;;;;;;4.03;2.58;;;;;;;;;;5064373;28;20240;-64
2023/07/12 12:36:03;;;;;;;3.58;3.22;;;;;;;;;;5064935;28;20231;-64
2023/07/12 12:38:34;;;;;;;4.07;3.00;;;;;;;;;;5066430;28;20197;-63
2023/07/12 12:41:10;;;;;;;4.65;3.05;;;;;;;;;;5064215;28;20225;-63
2023/07/12 12:43:54;;;;;;;9.43;3.70;;;;;;;;;;5065788;28;20225;-63
2023/07/12 12:46:22;;;;;;;7.72;3.65;;;;;;;;;;5054213;28;20260;-64
2023/07/12 12:48:51;;;;;;;9.57;3.75;;;;;;;;;;5065626;28;20218;-64
2023/07/12 12:51:23;;;;;;;5.75;3.25;;;;;;;;;;5059302;28;20232;-64
2023/07/12 12:53:54;;;;;;;5.45;3.75;;;;;;;;;;5043357;28;20212;-65
2023/07/12 12:56:37;;;;;;;7.78;3.50;;;;;;;;;;5039326;28;20233;-64
2023/07/12 12:59:09;;;;;;;8.13;3.60;;;;;;;;;;5055015;28;20233;-62
2023/07/12 13:01:41;;;;;;;7.00;3.67;;;;;;;;;;5057538;28;20311;-64
2023/07/12 13:04:29;;;;;;;6.28;3.05;;;;;;;;;;5046626;28;20203;-63
2023/07/12 13:07:21;;;;;;;4.43;2.95;;;;;;;;;;5037730;28;20210;-65
2023/07/12 13:09:52;;;;;;;362.90;237.43;;;;;;;;;;5038024;28;20256;-66
2023/07/12 13:12:25;;;;;;;101.63;90.47;;;;;;;;;;5045304;28;20215;-65
2023/07/12 13:14:56;;;;;;;20.47;13.10;;;;;;;;;;5062917;28;20231;-63
2023/07/12 13:17:27;;;;;;;8.33;5.73;;;;;;;;;;5067624;28;20206;-64
2023/07/12 13:20:08;;;;;;;7.87;5.23;;;;;;;;;;5067919;28;20222;-64
2023/07/12 13:22:40;;;;;;;8.93;4.73;;;;;;;;;;5063179;28;20205;-64
2023/07/12 13:25:09;;;;;;;10.33;6.17;;;;;;;;;;5061539;28;20206;-63
2023/07/12 13:27:39;;;;;;;10.88;6.00;;;;;;;;;;5049741;28;20203;-63
2023/07/12 13:30:11;;;;;;;10.18;5.30;;;;;;;;;;5037197;28;20256;-63
2023/07/12 13:32:39;;;;;;;5.57;4.88;;;;;;;;;;5055698;28;20291;-63
2023/07/12 13:35:08;;;;;;;6.07;4.53;;;;;;;;;;5061618;28;20219;-63
2023/07/12 13:37:39;;;;;;;6.75;4.47;;;;;;;;;;5063737;28;20891;-63
2023/07/12 13:40:12;;;;;;;9.88;4.03;;;;;;;;;;5062475;28;20231;-63
2023/07/12 13:42:48;;;;;;;8.27;3.83;;;;;;;;;;5066381;28;20203;-63
2023/07/12 13:45:25;;;;;;;6.13;4.32;;;;;;;;;;5069198;28;20583;-63
2023/07/12 13:47:53;;;;;;;5.07;3.47;;;;;;;;;;5065674;28;20223;-63
2023/07/12 13:50:21;;;;;;;4.63;3.47;;;;;;;;;;5072680;28;20257;-63
2023/07/12 13:52:49;;;;;;;5.45;3.20;;;;;;;;;;5063527;28;20555;-63
2023/07/12 13:55:18;;;;;;;8.32;3.08;;;;;;;;;;5055057;28;20226;-63
2023/07/12 13:57:48;;;;;;;4.50;3.53;;;;;;;;;;5052212;28;20226;-62
2023/07/12 14:00:18;;;;;;;5.00;3.03;;;;;;;;;;5057999;28;20228;-63
2023/07/12 14:02:50;;;;;;;5.70;3.20;;;;;;;;;;5049547;28;20204;-64
2023/07/12 14:05:32;;;;;;;4.75;3.40;;;;;;;;;;5054967;28;20202;-63
2023/07/12 14:08:03;;;;;;;3.83;2.88;;;;;;;;;;5040818;28;20211;-64
2023/07/12 14:10:33;;;;;;;3.33;3.03;;;;;;;;;;5040938;28;20721;-64
2023/07/12 14:13:03;;;;;;;8.88;3.20;;;;;;;;;;5058726;28;20261;-63
2023/07/12 14:15:32;;;;;;;5.18;3.70;;;;;;;;;;5040807;28;20231;-63
2023/07/12 14:17:59;;;;;;;3.63;2.80;;;;;;;;;;5040982;28;20207;-62
2023/07/12 14:20:27;;;;;;;5.07;2.50;;;;;;;;;;5040927;28;20262;-63
2023/07/12 14:22:55;;;;;;;3.72;2.50;;;;;;;;;;5040720;28;20217;-62
2023/07/12 14:25:23;;;;;;;2.70;2.50;;;;;;;;;;5040961;28;20267;-63
2023/07/12 14:27:51;;;;;;;4.30;2.60;;;;;;;;;;5040873;28;20220;-63
2023/07/12 14:30:20;;;;;;;3.10;2.40;;;;;;;;;;5040717;28;20230;-63
2023/07/12 14:32:51;;;;;;;7.22;2.90;;;;;;;;;;5040567;28;20251;-62
2023/07/12 14:35:20;;;;;;;5.65;2.78;;;;;;;;;;5040408;28;20329;-61
2023/07/12 14:37:49;;;;;;;6.03;2.53;;;;;;;;;;5040673;28;20209;-62
2023/07/12 14:40:17;;;;;;;4.75;2.80;;;;;;;;;;5046806;28;20230;-64
2023/07/12 14:42:45;;;;;;;6.10;2.67;;;;;;;;;;5041621;28;20219;-63
2023/07/12 14:45:14;;;;;;;3.25;2.47;;;;;;;;;;5040347;28;20647;-63
2023/07/12 14:47:44;;;;;;;4.18;2.60;;;;;;;;;;5046895;28;20203;-63
2023/07/12 14:50:14;;;;;;;4.00;2.42;;;;;;;;;;5060227;28;20260;-63
2023/07/12 14:52:42;;;;;;;4.43;2.30;;;;;;;;;;5060606;28;20660;-64
2023/07/12 14:55:12;;;;;;;5.93;3.20;;;;;;;;;;5058447;28;20288;-63